Jackpot

Texas Poker Multi Jackpot System

Kini Telah hadir Jackpot SUPER ROYAL FLUSH

Kini Telah hadir Jackpot 2000 (khusus table VIP keatas).

Ikutilah global jackpot yang tersedia di system kami, dengan system jackpot terbaru dan pertama di indonesia, anda dapat membeli jackpot dengan harga 100 rupiah saja dan menangkan hadiahnya hingga puluhan juta rupiah.

Jackpot bukanlah suatu keharusan untuk dibeli, namun kami memberikan suatu fitur tambahan untuk member tercinta dari www.pokeryuks.com.

Terdapat tiga pilihan harga jackpot yang bisa anda beli yaitu :100,500,1000 dan 2000(khusus table VIP Keatas) rupiah.

Hadiah dari Multi jackpot system www.pokeryuks.com

  1. full house x 10 harga jackpot yang anda beli.
      (contoh:anda membeli 1000 maka:1000 X10 = 10.000)
  2. four of kind x 250 harga jackpot yang anda beli
      (contoh:anda membeli 1000 maka:1000 X250 = 250.000)
  3. Straight flush x 1200
      (contoh:anda membeli 1000 maka:1000 X1200 = 1.200.000)
  4. Royal flush x 10000 harga jackpot yang anda beli
      (contoh:anda membeli 1000 maka:1000 X10000 = 10.000.000)
  5. SUPER ROYAL FLUSH x 30000 harga jackpot yang anda beli
      (contoh:anda membeli 1000 maka:1000 X30000 = 30.000.000)

Kondisi kartu

  1. full house adalah kondisi kartu dimana kartu anda dan kartu tengah dengan total 7 kartu bisa mendapatkan nilai 5 kartu dengan kombinasi 1 tris(three of kind) dan 1 pair, contoh 3 kartu 10 dan 2 kartu 5
  2. Four of kind adalah kondisi kartu dimana kartu anda dan kartu tengah dengan total 7 kartu bisa mendapatkan nilai 5 kartu dengan kombinasi 4 kartu yang sama jumlah dan 1 kartu apapun juga contoh anda mendapatkan 4 buah kartu angka 3 dan 1 kartu apapun.
  3. Staright flush adalah kondisi kartu dimana kartu anda dan kartu tengah dengan total 7 kartu bisa mendapatkan nilai 5 kartu dengan kombinasi seri / staright dengan kembang yang sama contoh : urutan kartu dari angka 5, 6, 7, 8 , 9 10 dengan kembang yg sama misalnya as hati
  4. Royal flush adalah kondisi kartu dimana kartu anda dan kartu tengah dengan total 7 kartu bisa mendapatkan nilai 5 kartu dengan kombinasi seri / staright dengan kembang yang sama tetapi kartu tersebut haruslah dimulai dari 10. contoh 10, Queen, Jack, King dan aces dengan kembang yang sama
  5. Super Royal flush adalah kondisi kartu dimana Kedua kartu anda digabung dengan 3 kartu pertama meja haruslah royal flush. contoh kartu anda 10,Queen kembang sama dan 3 kartu pertama meja adalah Jack, King dan aces dengan kembang yang sama

Demikian adalah penjelasan dari Multi Jackpot www.pokeryuks.com terima kasih dan selamat bermain salam hoki dari kami

Texas Poker Jackpot Winner

TOP SUPER ROYAL FLUSH
No.TanggalNamaPriceWin
121/01 20:22AD11B06Super Royal flush6,000,000
221/01 20:22P_PITRIA27Super Royal flush6,000,000
321/01 16:30BEJ0Y0Super Royal flush15,000,000
421/01 16:16IPO08Super Royal flush6,000,000
521/01 15:17B4B0S29Super Royal flush6,000,000
TOP ROYAL FLUSH
No.TanggalNamaPriceWin
121/01 21:38SIPAND3RRoyal flush2,000,000
221/01 21:32ANDRI_FUKYRoyal flush2,000,000
321/01 21:32CANTIK2XRoyal flush2,000,000
421/01 21:26O6ZUKM4EDTRoyal flush10,000,000
521/01 21:04GENK91Royal flush2,000,000
TOP STRAIGHT FLUSH
No.TanggalNamaPriceWin
121/01 21:48PAIJO_76Straight Flush120,000
221/01 21:47GEMBELL6Straight Flush240,000
321/01 21:47FIAWARIRStraight Flush600,000
421/01 21:47DSAYANG_BDStraight Flush600,000
521/01 21:46DF2ACB42Straight Flush600,000
LATEST JACKPOT
No.TanggalNamaPriceWin
121/01 21:48QU33N87Full House5,000
221/01 21:48LADHENTFour Of A Kind50,000
321/01 21:48D906FAF8Four Of A Kind50,000
421/01 21:48AE6F7D14Full House5,000
521/01 21:48ALIAJAHRA2Full House2,000
621/01 21:48T4DHANTAM33Full House5,000
721/01 21:48FAISALPECOFull House5,000
821/01 21:48BLEND17Four Of A Kind50,000
921/01 21:48SEFTA19Full House500
1021/01 21:48BAJINGANHHFull House10,000
1121/01 21:48MARTADINATFull House5,000
1221/01 21:48PANTEK_AAFull House5,000
1321/01 21:48MERAH_45Full House1,000
1421/01 21:48HXZCHQPJ3LFull House1,000
1521/01 21:48FIKRI77Full House2,000
1621/01 21:48DIAMELFour Of A Kind50,000
1721/01 21:48NAM_BENGFull House2,000
1821/01 21:48MUTH75PASFull House2,000
1921/01 21:48HBNVFHX1D0Full House5,000
2021/01 21:48NENINANGFour Of A Kind125,000
2121/01 21:48IYAA123Four Of A Kind25,000
2221/01 21:48RADIKA02Full House2,000
2321/01 21:48MANTAFQQFull House2,000
2421/01 21:48ZUMANZIEFull House5,000
2521/01 21:48MINTAREZEKFull House2,000
2621/01 21:48PAIJO_76Straight Flush120,000
2721/01 21:48CISARANTAFull House10,000
2821/01 21:48N4SIB03Full House10,000
2921/01 21:48PACE23Full House1,000
3021/01 21:48MALTFull House10,000
3121/01 21:48LOP999Full House2,000
3221/01 21:48M4T1AJAFull House5,000
3321/01 21:47ANCOK00Full House1,000
3421/01 21:47MORA_Full House2,000
3521/01 21:47M1055Full House1,000
3621/01 21:47PITULUIKFull House10,000
3721/01 21:47TEMPOER7Full House20,000
3821/01 21:47DEBLONG168Full House20,000
3921/01 21:47JAZU88Full House10,000
4021/01 21:47EXCELBKFull House2,000
4121/01 21:47BOHKREH99Full House5,000
4221/01 21:47B0HAI08Full House5,000
4321/01 21:47KOLAKOLAAAFull House2,000
4421/01 21:47A1KYHFL4MBFull House2,000
4521/01 21:47NEL2000Full House10,000
4621/01 21:47BDDUD8EHEBFull House5,000
4721/01 21:47SLEECKSFull House2,000
4821/01 21:47XONE22Full House1,000
4921/01 21:47NKS08Full House1,000
5021/01 21:47WQE6P93321Full House1,000

Domino Multi Jackpot System

Ikutilah global jackpot yang tersedia di system kami, dengan system jackpot terbaru dan pertama di indonesia, anda dapat membeli jackpot dengan harga 100 rupiah saja dan menangkan hadiahnya hingga puluhan juta rupiah.

Jackpot bukanlah suatu keharusan untuk dibeli, namun kami memberikan suatu fitur tambahan untuk member tercinta dari www.pokeryuks.com.

Terdapat tiga pilihan harga jackpot yang bisa anda beli yaitu :100,500 dan 1000 rupiah.

Hadiah dari Multi jackpot system www.pokeryuks.com

  1. Murni Kecil x 50 harga jackpot yang anda beli.
      (contoh:anda membeli 1000 maka:1000 X 50 = 50.000)
  2. Murni Besar x 50 harga jackpot yang anda beli
      (contoh:anda membeli 1000 maka:1000 X 50 = 50.000)
  3. BALAK x 100 harga jackpot yang anda beli
      (contoh:anda membeli 1000 maka:1000 X 100 = 100.000)
  4. ENAM DEWA x 6666 harga jackpot yang anda beli
      (contoh:anda membeli 1000 maka:1000 X 6666 = 6.666.000)

Demikian adalah penjelasan dari Multi Jackpot www.pokeryuks.com terima kasih dan selamat bermain salam hoki dari kami

Domino Jackpot Winner

TOP ENAM DEWA
No.TanggalNamaPriceWin
121/01 20:18AURI333murni enam6,666,000
221/01 19:06PLETUK3murni enam3,333,000
321/01 17:54D0CIL21murni enam3,333,000
421/01 14:54AP101288murni enam6,666,000
521/01 13:31CB77APPAmurni enam666,600
TOP BALAK
No.TanggalNamaPriceWin
121/01 21:47BEKOCK666balak10,000
221/01 21:46BABEJONbalak50,000
321/01 21:43VANK6969balak10,000
421/01 21:42LGB07337balak10,000
521/01 21:37BOSBOGELbalak50,000
LATEST JACKPOT
No.TanggalNamaPriceWin
121/01 21:48EMANEKOKmurni besar50,000
221/01 21:48NONGGImurni kecil5,000
321/01 21:48ADF749A2murni kecil25,000
421/01 21:47CIPOK787murni besar25,000
521/01 21:47DELE777murni besar50,000
621/01 21:47BEKOCK666balak10,000
721/01 21:46TOYOL008murni kecil50,000
821/01 21:46TEAMPAKAW2lucky9910,000
921/01 21:46BABEJONbalak50,000
1021/01 21:46DAZAGOmurni besar25,000
1121/01 21:45JBL212murni kecil25,000
1221/01 21:45ZIGIHmurni kecil25,000
1321/01 21:44CK54BU50murni kecil50,000
1421/01 21:44ANEN909murni besar5,000
1521/01 21:43SHILA17murni kecil50,000
1621/01 21:43ELNAGGGGGGlucky9925,000
1721/01 21:43VANK6969balak10,000
1821/01 21:42VELASCO97murni besar25,000
1921/01 21:42LGB07337balak10,000
2021/01 21:40RIZAL1986murni besar50,000
2121/01 21:39JIDIN09murni kecil50,000
2221/01 21:39MADA77murni besar50,000
2321/01 21:39ANTONDOLLAmurni besar5,000
2421/01 21:38GKXFEQMJL7murni besar50,000
2521/01 21:38CAMPOS79murni besar50,000
2621/01 21:38RATTIH99murni kecil25,000
2721/01 21:37BOSBOGELbalak50,000
2821/01 21:37GAGAH4X6murni kecil50,000
2921/01 21:36CICANGmurni kecil25,000
3021/01 21:35IPAN54murni besar50,000
3121/01 21:35A9A9BDDBmurni besar5,000
3221/01 21:35BEBEC98murni besar50,000
3321/01 21:35NXTTOURmurni kecil5,000
3421/01 21:34BOGENG99murni kecil50,000
3521/01 21:34HOKIANISS1murni kecil50,000
3621/01 21:33MENOT_OYEmurni kecil50,000
3721/01 21:32CAN858balak50,000
3821/01 21:32KAWUNGECElucky9925,000
3921/01 21:32EDIS25murni kecil50,000
4021/01 21:32SETIYADI27balak50,000
4121/01 21:32QIUZ1murni besar5,000
4221/01 21:32GLORI99lucky992,500
4321/01 21:31ALI45U9murni kecil50,000
4421/01 21:30INDR88murni besar5,000
4521/01 21:30CERAH1INmurni besar25,000
4621/01 21:30RUDYSAKAbalak10,000
4721/01 21:30LB881007murni besar5,000
4821/01 21:28BRENDAZWbalak10,000
4921/01 21:28IWONG22murni kecil50,000
5021/01 21:28JJJGmurni kecil5,000

Ceme Multi Jackpot System

Jackpot dilihat dari gabungan kartu pemain dengan kartu bandar. Bandar harus membeli jackpot sebanyak jumlah player yang sedang duduk. Sebagai contoh bila terdapat 3 pemain duduk bermain, dan bandar memutuskan untuk membeli jackpot Rp 1.000, maka pada periode tersebut bandar akan membeli jackpot sebanyak 3xRp1.000 = Rp3.000.

Jackpot bukanlah suatu keharusan untuk dibeli, namun kami memberikan suatu fitur tambahan untuk member tercinta dari www.pokeryuks.com.

Terdapat tiga pilihan harga jackpot yang bisa anda beli yaitu :100,500 dan 1000 rupiah.

Hadiah dari Multi jackpot system www.pokeryuks.com

  1. Murni Kecil x 50 harga jackpot yang anda beli.
      (contoh:anda membeli 1000 maka:1000 X 50 = 50.000)
  2. Murni Besar x 50 harga jackpot yang anda beli
      (contoh:anda membeli 1000 maka:1000 X 50 = 50.000)
  3. BALAK x 200 harga jackpot yang anda beli
      (contoh:anda membeli 1000 maka:1000 X 200 = 200.000)
  4. ENAM DEWA x 6666 harga jackpot yang anda beli
      (contoh:anda membeli 1000 maka:1000 X 6666 = 6.666.000)

Demikian adalah penjelasan dari Multi Jackpot www.pokeryuks.com terima kasih dan selamat bermain salam hoki dari kami

Ceme Jackpot Winner

TOP ENAM DEWA
No.TanggalNamaPriceWin
121/01 21:47ENGKAY50murni enam6,666,000
221/01 21:35AWIR87murni enam6,666,000
321/01 21:35VITAS99murni enam6,666,000
421/01 20:58ENGKOH33murni enam666,600
521/01 20:55DJAYA114murni enam666,600
TOP BALAK
No.TanggalNamaPriceWin
121/01 21:47OPETDOANGbalak100,000
221/01 21:47HANABUT23balak200,000
321/01 21:47BENI5678balak100,000
421/01 21:46NJ45balak200,000
521/01 21:46BP882682balak200,000
LATEST JACKPOT
No.TanggalNamaPriceWin
121/01 21:48CEME8989murni kecil25,000
221/01 21:48WCHUE7murni besar50,000
321/01 21:48POW6BDFI5Dmurni besar50,000
421/01 21:48SKIPPmurni besar5,000
521/01 21:48LEPAY9murni kecil50,000
621/01 21:48ARDYYNmurni kecil50,000
721/01 21:48ROSMINAmurni kecil5,000
821/01 21:48BETUA2murni kecil50,000
921/01 21:48GINTI99murni kecil50,000
1021/01 21:48CEME8989murni kecil50,000
1121/01 21:47RAFFIRRmurni besar50,000
1221/01 21:47OPETDOANGbalak100,000
1321/01 21:47ROMMELSIANmurni kecil5,000
1421/01 21:47HANABUT23balak200,000
1521/01 21:47BENI5678balak100,000
1621/01 21:47ZIDADmurni kecil50,000
1721/01 21:47AOPP2YE744murni besar50,000
1821/01 21:47AWIR87murni kecil50,000
1921/01 21:47TANKUS07murni kecil25,000
2021/01 21:47ENGKAY50murni enam6,666,000
2121/01 21:47RUYUmurni kecil50,000
2221/01 21:47WHITET4ILmurni kecil5,000
2321/01 21:47RIANSYUSSmurni kecil50,000
2421/01 21:46NJ45balak200,000
2521/01 21:46BP882682balak200,000
2621/01 21:46NJ45balak200,000
2721/01 21:46NG4NGA22murni besar5,000
2821/01 21:46BP882943murni kecil50,000
2921/01 21:46PRIT8383murni kecil50,000
3021/01 21:46SEFY01murni besar50,000
3121/01 21:46CHRIST08murni besar50,000
3221/01 21:46F8MRS2W8GImurni kecil50,000
3321/01 21:46MUNIF76balak200,000
3421/01 21:46ENTONG_IWbalak200,000
3521/01 21:46RENDANI7balak20,000
3621/01 21:46IHLIMSNSVJbalak200,000
3721/01 21:46MAR113balak100,000
3821/01 21:46IHLIMSNSVJbalak200,000
3921/01 21:46YETNO93balak20,000
4021/01 21:46PUNGYEN66murni kecil50,000
4121/01 21:46WCHUE7murni besar50,000
4221/01 21:46FABAAmurni kecil50,000
4321/01 21:46LUGUA09balak200,000
4421/01 21:46KEMOZ3189balak200,000
4521/01 21:45DF978murni kecil50,000
4621/01 21:45AAAABIAB36murni kecil5,000
4721/01 21:45DDFAF487balak20,000
4821/01 21:45GOOSPERY12murni besar50,000
4921/01 21:45F8MRS2W8GImurni kecil50,000
5021/01 21:45LAPANGBEmurni kecil25,000